createdAt,value
2023-02-02T00:01:13.452Z,1.60
2023-02-02T00:03:40.253Z,1.80
2023-02-02T00:06:07.053Z,2.90
2023-02-02T00:08:35.932Z,2.83
2023-02-02T00:11:02.469Z,2.17
2023-02-02T00:13:28.928Z,2.00
2023-02-02T00:15:55.757Z,2.30
2023-02-02T00:18:22.235Z,3.27
2023-02-02T00:20:50.136Z,3.20
2023-02-02T00:23:17.396Z,2.97
2023-02-02T00:25:43.911Z,2.23
2023-02-02T00:28:10.668Z,2.30
2023-02-02T00:30:37.217Z,2.10
2023-02-02T00:33:03.882Z,2.70
2023-02-02T00:35:30.553Z,2.60
2023-02-02T00:37:57.032Z,3.57
2023-02-02T00:40:24.914Z,3.10
2023-02-02T00:42:51.556Z,2.43
2023-02-02T00:45:18.493Z,2.20
2023-02-02T00:47:47.154Z,1.67
2023-02-02T00:50:19.273Z,2.00
2023-02-02T00:52:47.124Z,3.13
2023-02-02T00:55:14.456Z,1.80
2023-02-02T00:57:41.328Z,2.70
2023-02-02T01:00:09.347Z,2.00
2023-02-02T01:02:36.158Z,3.30
2023-02-02T01:05:03.125Z,2.30
2023-02-02T01:07:29.756Z,3.07
2023-02-02T01:09:56.309Z,2.30
2023-02-02T01:12:22.919Z,2.40
2023-02-02T01:14:49.388Z,2.30
2023-02-02T01:17:15.903Z,2.30
2023-02-02T01:19:42.718Z,2.33
2023-02-02T01:22:09.868Z,2.87
2023-02-02T01:24:36.346Z,2.60
2023-02-02T01:27:02.855Z,2.83
2023-02-02T01:29:29.360Z,2.60
2023-02-02T01:31:55.854Z,2.63
2023-02-02T01:34:22.441Z,3.10
2023-02-02T01:36:49.047Z,2.97
2023-02-02T01:39:15.518Z,3.60
2023-02-02T01:41:42.286Z,4.03
2023-02-02T01:44:46.465Z,4.60
2023-02-02T01:47:13.457Z,4.40
2023-02-02T01:49:40.569Z,4.70
2023-02-02T01:52:10.005Z,4.80
2023-02-02T01:54:45.315Z,4.57
2023-02-02T01:57:42.442Z,4.87
2023-02-02T02:00:13.249Z,6.53
2023-02-02T02:02:40.446Z,5.33
2023-02-02T02:05:08.147Z,5.20
2023-02-02T02:07:34.859Z,6.10
2023-02-02T02:10:01.396Z,6.17
2023-02-02T02:12:27.833Z,5.77
2023-02-02T02:15:13.046Z,5.43
2023-02-02T02:18:04.521Z,6.20
2023-02-02T02:21:23.982Z,5.97
2023-02-02T02:24:53.801Z,5.97
2023-02-02T02:27:34.526Z,5.80
2023-02-02T02:30:09.950Z,4.77
2023-02-02T02:32:42.556Z,6.00
2023-02-02T02:35:17.109Z,6.47
2023-02-02T02:38:20.875Z,6.30
2023-02-02T02:41:09.106Z,6.57
2023-02-02T02:43:41.594Z,5.80
2023-02-02T02:46:09.481Z,7.60
2023-02-02T02:48:36.033Z,7.00
2023-02-02T02:51:47.804Z,7.67
2023-02-02T02:54:31.594Z,7.50
2023-02-02T02:57:06.455Z,8.30
2023-02-02T02:59:45.031Z,7.10
2023-02-02T03:02:16.947Z,7.50
2023-02-02T03:05:03.767Z,6.40
2023-02-02T03:07:37.191Z,6.63
2023-02-02T03:10:05.666Z,6.60
2023-02-02T03:12:32.202Z,6.70
2023-02-02T03:14:58.769Z,6.33
2023-02-02T03:17:27.706Z,5.87
2023-02-02T03:19:54.156Z,6.23
2023-02-02T03:22:20.861Z,6.30
2023-02-02T03:24:47.404Z,6.90
2023-02-02T03:27:14.157Z,7.00
2023-02-02T03:29:43.059Z,7.40
2023-02-02T03:32:09.798Z,8.13
2023-02-02T03:34:36.828Z,9.73
2023-02-02T03:37:03.377Z,8.33
2023-02-02T03:39:29.959Z,8.03
2023-02-02T03:41:56.479Z,8.70
2023-02-02T03:44:22.986Z,8.57
2023-02-02T03:46:53.352Z,8.00
2023-02-02T03:49:20.020Z,8.00
2023-02-02T03:51:46.645Z,8.67
2023-02-02T03:54:13.826Z,7.50
2023-02-02T03:56:40.375Z,7.93
2023-02-02T03:59:06.926Z,8.97
2023-02-02T04:01:33.616Z,10.40
2023-02-02T04:04:00.199Z,9.20
2023-02-02T04:06:26.935Z,10.70
2023-02-02T04:08:53.483Z,8.67
2023-02-02T04:11:20.141Z,7.47
2023-02-02T04:13:46.652Z,6.87
2023-02-02T04:16:13.384Z,6.20
2023-02-02T04:18:40.379Z,5.83
2023-02-02T04:21:08.528Z,5.60
2023-02-02T04:23:35.113Z,5.80
2023-02-02T04:26:01.940Z,5.80
2023-02-02T04:28:28.778Z,5.47
2023-02-02T04:30:56.338Z,4.73
2023-02-02T04:33:27.105Z,5.23
2023-02-02T04:35:53.903Z,4.70
2023-02-02T04:38:20.519Z,4.43
2023-02-02T04:40:48.271Z,4.00
2023-02-02T04:43:15.279Z,4.03
2023-02-02T04:45:42.445Z,4.50
2023-02-02T04:48:09.740Z,3.80
2023-02-02T04:50:36.518Z,3.90
2023-02-02T04:53:04.153Z,3.73
2023-02-02T04:55:30.883Z,3.60
2023-02-02T04:57:57.442Z,4.10
2023-02-02T05:00:23.999Z,3.83
2023-02-02T05:02:50.581Z,4.00
2023-02-02T05:05:17.154Z,4.27
2023-02-02T05:07:43.720Z,3.53
2023-02-02T05:10:11.362Z,4.20
2023-02-02T05:12:37.936Z,3.53
2023-02-02T05:15:05.618Z,3.40
2023-02-02T05:17:32.978Z,3.23
2023-02-02T05:19:59.564Z,3.83
2023-02-02T05:22:26.914Z,4.23
2023-02-02T05:24:53.425Z,4.27
2023-02-02T05:27:20.818Z,4.30
2023-02-02T05:29:48.224Z,4.80
2023-02-02T05:32:14.729Z,5.90
2023-02-02T05:34:41.567Z,6.13
2023-02-02T05:37:08.205Z,6.20
2023-02-02T05:39:34.731Z,8.83
2023-02-02T05:42:01.333Z,8.50
2023-02-02T05:44:27.879Z,10.17
2023-02-02T05:46:54.606Z,11.07
2023-02-02T05:49:21.322Z,11.00
2023-02-02T05:51:49.566Z,12.00
2023-02-02T05:54:20.277Z,14.67
2023-02-02T05:56:51.819Z,15.60
2023-02-02T05:59:19.039Z,17.30
2023-02-02T06:01:46.408Z,20.00
2023-02-02T06:04:13.321Z,19.90
2023-02-02T06:06:40.465Z,20.23
2023-02-02T06:09:07.889Z,19.17
2023-02-02T06:11:35.102Z,19.60
2023-02-02T06:14:01.890Z,18.87
2023-02-02T06:16:28.537Z,17.50
2023-02-02T06:18:55.178Z,18.60
2023-02-02T06:21:24.441Z,18.37
2023-02-02T06:23:51.762Z,17.77
2023-02-02T06:26:19.015Z,18.07
2023-02-02T06:28:49.972Z,18.00
2023-02-02T06:31:19.268Z,18.00
2023-02-02T06:33:52.470Z,18.47
2023-02-02T06:36:18.994Z,17.40
2023-02-02T06:38:51.870Z,16.20
2023-02-02T06:41:20.345Z,16.80
2023-02-02T06:43:47.772Z,16.07
2023-02-02T06:46:14.650Z,15.93
2023-02-02T06:48:41.332Z,15.67
2023-02-02T06:51:08.490Z,16.60
2023-02-02T06:53:35.397Z,17.20
2023-02-02T06:56:04.816Z,16.60
2023-02-02T06:58:32.088Z,16.03
2023-02-02T07:01:07.364Z,16.57
2023-02-02T07:03:34.039Z,16.60
2023-02-02T07:06:13.822Z,15.33
2023-02-02T07:08:40.373Z,17.47
2023-02-02T07:11:12.016Z,15.67
2023-02-02T07:13:41.286Z,16.17
2023-02-02T07:16:12.926Z,16.20
2023-02-02T07:18:40.338Z,17.27
2023-02-02T07:21:06.981Z,14.57
2023-02-02T07:23:34.041Z,15.90
2023-02-02T07:26:02.377Z,14.57
2023-02-02T07:28:28.997Z,14.30
2023-02-02T07:30:55.674Z,13.50
2023-02-02T07:33:22.209Z,14.00
2023-02-02T07:35:48.751Z,15.93
2023-02-02T07:38:15.399Z,15.53
2023-02-02T07:40:42.031Z,16.20
2023-02-02T07:43:09.321Z,15.93
2023-02-02T07:45:36.363Z,16.77
2023-02-02T07:48:03.693Z,16.10
2023-02-02T07:50:31.142Z,15.60
2023-02-02T07:52:58.976Z,15.80
2023-02-02T07:55:25.544Z,17.53
2023-02-02T07:57:54.302Z,16.20
2023-02-02T08:00:21.609Z,16.67
2023-02-02T08:02:51.506Z,16.27
2023-02-02T08:05:18.000Z,17.20
2023-02-02T08:07:48.319Z,16.60
2023-02-02T08:10:15.241Z,16.80
2023-02-02T08:12:41.764Z,16.97
2023-02-02T08:15:08.886Z,17.57
2023-02-02T08:17:35.456Z,18.27
2023-02-02T08:20:01.910Z,17.43
2023-02-02T08:22:28.519Z,16.70
2023-02-02T08:24:55.037Z,17.23
2023-02-02T08:27:21.871Z,16.13
2023-02-02T08:29:48.413Z,16.03
2023-02-02T08:32:15.007Z,14.27
2023-02-02T08:34:41.575Z,15.20
2023-02-02T08:37:08.205Z,15.17
2023-02-02T08:39:35.065Z,15.40
2023-02-02T08:42:01.579Z,15.80
2023-02-02T08:44:42.886Z,13.50
2023-02-02T08:47:14.638Z,15.63
2023-02-02T08:49:42.437Z,15.57
2023-02-02T08:52:08.977Z,15.07
2023-02-02T08:54:35.785Z,15.20
2023-02-02T08:57:02.284Z,14.40
2023-02-02T08:59:28.774Z,15.17
2023-02-02T09:01:55.780Z,14.80
2023-02-02T09:04:22.359Z,14.47
2023-02-02T09:06:48.881Z,13.00
2023-02-02T09:09:16.361Z,13.83
2023-02-02T09:11:43.794Z,14.00
2023-02-02T09:14:12.520Z,14.90
2023-02-02T09:16:39.216Z,15.53
2023-02-02T09:19:06.321Z,14.90
2023-02-02T09:21:37.175Z,12.33
2023-02-02T09:24:12.414Z,13.67
2023-02-02T09:26:40.484Z,12.77
2023-02-02T09:29:08.520Z,10.57
2023-02-02T09:31:37.380Z,11.33
2023-02-02T09:34:05.733Z,12.03
2023-02-02T09:36:32.401Z,11.37
2023-02-02T09:38:59.346Z,11.37
2023-02-02T09:41:31.909Z,11.70
2023-02-02T09:44:16.564Z,11.73
2023-02-02T09:47:01.818Z,10.73
2023-02-02T09:49:55.201Z,11.37
2023-02-02T09:53:00.825Z,12.00
2023-02-02T09:55:35.634Z,10.67
2023-02-02T09:58:05.099Z,11.70
2023-02-02T10:00:34.609Z,9.57
2023-02-02T10:03:05.186Z,11.20
2023-02-02T10:05:44.000Z,11.23
2023-02-02T10:08:20.582Z,10.37
2023-02-02T10:10:55.847Z,9.40
2023-02-02T10:13:29.163Z,9.20
2023-02-02T10:16:11.213Z,9.93
2023-02-02T10:18:50.081Z,9.37
2023-02-02T10:21:35.557Z,8.40
2023-02-02T10:24:03.459Z,8.83
2023-02-02T10:26:43.920Z,8.93
2023-02-02T10:29:16.674Z,9.07
2023-02-02T10:32:09.741Z,8.37
2023-02-02T10:35:13.157Z,8.27
2023-02-02T10:37:58.532Z,10.10
2023-02-02T10:40:42.786Z,9.10
2023-02-02T10:43:34.221Z,8.60
2023-02-02T10:46:02.154Z,8.27
2023-02-02T10:48:35.833Z,9.00
2023-02-02T10:51:11.272Z,9.27
2023-02-02T10:53:37.956Z,9.93
2023-02-02T10:56:08.052Z,8.40
2023-02-02T10:58:41.343Z,8.40
2023-02-02T11:01:11.537Z,8.87
2023-02-02T11:03:40.121Z,8.60
2023-02-02T11:06:26.827Z,8.80
2023-02-02T11:08:58.170Z,9.60
2023-02-02T11:11:40.492Z,10.17
2023-02-02T11:14:10.273Z,10.63
2023-02-02T11:16:43.194Z,10.97
2023-02-02T11:19:22.651Z,12.77
2023-02-02T11:21:51.459Z,12.50
2023-02-02T11:24:23.576Z,12.30
2023-02-02T11:27:02.412Z,12.43
2023-02-02T11:29:32.607Z,11.70
2023-02-02T11:32:18.336Z,11.80
2023-02-02T11:34:44.910Z,14.33
2023-02-02T11:37:20.660Z,12.87
2023-02-02T11:39:47.669Z,12.47
2023-02-02T11:42:18.518Z,11.80
2023-02-02T11:44:54.986Z,13.30
2023-02-02T11:47:25.709Z,13.37
2023-02-02T11:49:54.366Z,12.40
2023-02-02T11:52:26.661Z,12.47
2023-02-02T11:54:57.397Z,12.27
2023-02-02T11:57:25.501Z,13.37
2023-02-02T12:00:16.576Z,11.00
2023-02-02T12:02:48.148Z,12.10
2023-02-02T12:05:20.950Z,12.63
2023-02-02T12:07:48.434Z,13.77
2023-02-02T12:10:20.016Z,14.00
2023-02-02T12:12:52.368Z,13.40
2023-02-02T12:15:23.835Z,13.40
2023-02-02T12:17:52.654Z,12.80
2023-02-02T12:20:31.641Z,12.30
2023-02-02T12:23:13.280Z,12.90
2023-02-02T12:25:59.191Z,14.07
2023-02-02T12:28:51.005Z,12.40
2023-02-02T12:31:36.822Z,12.40
2023-02-02T12:34:16.761Z,13.90
2023-02-02T12:37:03.497Z,11.83
2023-02-02T12:40:11.391Z,13.13
2023-02-02T12:43:15.725Z,11.63
2023-02-02T12:46:21.418Z,13.63
2023-02-02T12:49:12.310Z,13.53
2023-02-02T12:51:47.945Z,13.13
2023-02-02T12:54:45.859Z,13.97
2023-02-02T12:57:47.059Z,13.87
2023-02-02T13:00:38.446Z,14.07
2023-02-02T13:03:36.279Z,14.10
2023-02-02T13:06:21.898Z,14.47
2023-02-02T13:08:57.881Z,15.47
2023-02-02T13:11:56.133Z,14.10
2023-02-02T13:14:37.373Z,14.07
2023-02-02T13:17:51.379Z,13.17
2023-02-02T13:20:47.631Z,13.50
2023-02-02T13:23:39.004Z,14.43
2023-02-02T13:26:35.064Z,13.30
2023-02-02T13:29:21.955Z,14.90
2023-02-02T13:31:55.296Z,15.40
2023-02-02T13:34:29.338Z,15.87
2023-02-02T13:37:02.785Z,15.50
2023-02-02T13:39:47.807Z,16.30
2023-02-02T13:42:43.822Z,14.43
2023-02-02T13:45:31.372Z,14.83
2023-02-02T13:48:08.614Z,16.43
2023-02-02T13:50:44.204Z,14.40
2023-02-02T13:53:54.962Z,17.03
2023-02-02T13:56:40.478Z,16.03
2023-02-02T13:59:14.619Z,15.60
2023-02-02T14:01:46.697Z,16.57
2023-02-02T14:04:25.356Z,16.70
2023-02-02T14:06:57.490Z,17.37
2023-02-02T14:09:27.303Z,17.43
2023-02-02T14:12:03.112Z,17.10
2023-02-02T14:14:33.274Z,18.53
2023-02-02T14:17:13.927Z,18.97
2023-02-02T14:19:42.125Z,18.23
2023-02-02T14:22:08.848Z,17.10
2023-02-02T14:24:35.388Z,19.43
2023-02-02T14:27:28.410Z,19.47
2023-02-02T14:29:54.959Z,20.97
2023-02-02T14:32:30.794Z,19.20
2023-02-02T14:34:59.457Z,20.00
2023-02-02T14:37:29.002Z,18.30
2023-02-02T14:40:06.347Z,22.20
2023-02-02T14:43:25.258Z,21.20
2023-02-02T14:46:13.874Z,19.17
2023-02-02T14:48:42.291Z,20.37
2023-02-02T14:51:18.696Z,21.33
2023-02-02T14:53:51.091Z,22.17
2023-02-02T14:56:18.102Z,19.30
2023-02-02T14:58:46.801Z,19.00
2023-02-02T15:01:23.013Z,20.93
2023-02-02T15:04:17.837Z,20.87
2023-02-02T15:06:44.662Z,19.90
2023-02-02T15:09:20.451Z,22.70
2023-02-02T15:12:01.668Z,20.63
2023-02-02T15:14:34.336Z,21.00
2023-02-02T15:17:12.564Z,21.97
2023-02-02T15:19:42.283Z,22.20
2023-02-02T15:22:21.222Z,21.67
2023-02-02T15:24:48.556Z,21.50
2023-02-02T15:27:19.787Z,20.90
2023-02-02T15:29:49.719Z,23.00
2023-02-02T15:32:22.947Z,22.90
2023-02-02T15:34:53.194Z,21.43
2023-02-02T15:37:22.948Z,21.80
2023-02-02T15:39:52.849Z,22.83
2023-02-02T15:42:41.730Z,24.33
2023-02-02T15:45:29.067Z,20.97
2023-02-02T15:47:57.303Z,22.37
2023-02-02T15:50:23.978Z,21.50
2023-02-02T15:52:52.008Z,21.73
2023-02-02T15:55:23.645Z,21.27
2023-02-02T15:57:54.370Z,22.10
2023-02-02T16:00:38.114Z,18.83
2023-02-02T16:03:07.652Z,20.30
2023-02-02T16:05:37.195Z,22.50
2023-02-02T16:08:19.054Z,22.60
2023-02-02T16:10:48.157Z,22.87
2023-02-02T16:13:27.984Z,24.30
2023-02-02T16:15:56.973Z,25.80
2023-02-02T16:18:23.538Z,24.77
2023-02-02T16:20:51.500Z,25.43
2023-02-02T16:23:23.875Z,23.43
2023-02-02T16:25:52.672Z,21.53
2023-02-02T16:28:21.907Z,22.30
2023-02-02T16:30:48.800Z,22.43
2023-02-02T16:33:33.705Z,21.03
2023-02-02T16:36:00.709Z,21.90
2023-02-02T16:38:37.615Z,23.80
2023-02-02T16:41:14.229Z,22.47
2023-02-02T16:43:42.051Z,22.90
2023-02-02T16:46:15.344Z,20.70
2023-02-02T16:48:59.921Z,22.30
2023-02-02T16:51:33.943Z,19.57
2023-02-02T16:54:06.956Z,22.33
2023-02-02T16:56:36.545Z,20.43
2023-02-02T16:59:23.077Z,20.90
2023-02-02T17:01:52.667Z,22.13
2023-02-02T17:04:24.867Z,21.50
2023-02-02T17:06:53.410Z,23.70
2023-02-02T17:09:34.021Z,22.77
2023-02-02T17:12:16.790Z,23.20
2023-02-02T17:15:00.308Z,23.10
2023-02-02T17:17:27.550Z,24.53
2023-02-02T17:19:54.164Z,24.37
2023-02-02T17:22:23.149Z,24.90
2023-02-02T17:24:51.481Z,24.60
2023-02-02T17:27:27.085Z,23.50
2023-02-02T17:29:54.306Z,24.13
2023-02-02T17:32:21.023Z,26.90
2023-02-02T17:34:47.624Z,26.57
2023-02-02T17:37:14.213Z,27.53
2023-02-02T17:39:40.720Z,25.40
2023-02-02T17:42:21.016Z,24.87
2023-02-02T17:44:47.963Z,25.13
2023-02-02T17:47:14.555Z,27.67
2023-02-02T17:49:41.117Z,25.97
2023-02-02T17:52:09.972Z,27.80
2023-02-02T17:54:36.533Z,27.97
2023-02-02T17:57:03.420Z,25.77
2023-02-02T17:59:30.335Z,26.57
2023-02-02T18:01:57.837Z,26.20
2023-02-02T18:04:26.303Z,26.30
2023-02-02T18:06:52.898Z,26.87
2023-02-02T18:09:19.470Z,25.07
2023-02-02T18:11:48.281Z,25.40
2023-02-02T18:14:15.158Z,22.87
2023-02-02T18:16:41.731Z,24.90
2023-02-02T18:19:08.695Z,23.77
2023-02-02T18:21:35.449Z,24.43
2023-02-02T18:24:02.245Z,24.87
2023-02-02T18:26:28.768Z,25.60
2023-02-02T18:28:55.305Z,23.63
2023-02-02T18:31:24.025Z,24.23
2023-02-02T18:33:51.087Z,23.77
2023-02-02T18:36:20.619Z,23.97
2023-02-02T18:38:48.322Z,23.80
2023-02-02T18:41:16.512Z,23.47
2023-02-02T18:43:44.643Z,23.13
2023-02-02T18:46:16.425Z,24.07
2023-02-02T18:48:43.383Z,22.03
2023-02-02T18:51:18.753Z,22.10
2023-02-02T18:53:46.453Z,23.13
2023-02-02T18:56:14.696Z,21.70
2023-02-02T18:58:41.363Z,22.10
2023-02-02T19:01:17.071Z,20.47
2023-02-02T19:03:48.431Z,21.30
2023-02-02T19:06:33.837Z,19.47
2023-02-02T19:09:03.780Z,17.23
2023-02-02T19:11:49.532Z,16.27
2023-02-02T19:14:18.227Z,17.30
2023-02-02T19:16:46.992Z,15.40
2023-02-02T19:19:25.554Z,16.00
2023-02-02T19:21:55.965Z,15.03
2023-02-02T19:24:24.253Z,15.03
2023-02-02T19:26:50.931Z,14.60
2023-02-02T19:29:21.095Z,14.77
2023-02-02T19:32:00.651Z,15.77
2023-02-02T19:34:27.231Z,14.10
2023-02-02T19:36:53.867Z,18.67
2023-02-02T19:39:30.871Z,16.63
2023-02-02T19:41:59.816Z,16.20
2023-02-02T19:44:30.225Z,17.70
2023-02-02T19:46:57.601Z,18.67
2023-02-02T19:49:30.027Z,17.97
2023-02-02T19:51:58.497Z,18.10
2023-02-02T19:54:47.984Z,20.17
2023-02-02T19:57:22.873Z,18.53
2023-02-02T19:59:50.693Z,19.90
2023-02-02T20:02:54.401Z,23.80
2023-02-02T20:05:28.157Z,23.33
2023-02-02T20:08:19.169Z,22.37
2023-02-02T20:10:46.882Z,25.60
2023-02-02T20:13:26.040Z,28.07
2023-02-02T20:16:03.534Z,28.17
2023-02-02T20:18:39.017Z,27.20
2023-02-02T20:21:16.797Z,30.63
2023-02-02T20:23:45.823Z,28.40
2023-02-02T20:26:33.836Z,29.63
2023-02-02T20:29:22.375Z,30.27
2023-02-02T20:31:50.861Z,30.53
2023-02-02T20:34:23.426Z,31.33
2023-02-02T20:36:51.168Z,30.20
2023-02-02T20:39:36.098Z,31.00
2023-02-02T20:42:04.308Z,32.10
2023-02-02T20:44:33.082Z,32.23
2023-02-02T20:47:01.148Z,32.90
2023-02-02T20:49:31.651Z,34.30
2023-02-02T20:52:00.798Z,38.13
2023-02-02T20:54:27.484Z,36.00
2023-02-02T20:56:54.452Z,36.60
2023-02-02T20:59:21.090Z,37.50
2023-02-02T21:01:49.951Z,36.67
2023-02-02T21:04:17.640Z,36.57
2023-02-02T21:06:44.415Z,37.00
2023-02-02T21:09:11.616Z,37.07
2023-02-02T21:11:38.425Z,35.20
2023-02-02T21:14:05.420Z,36.47
2023-02-02T21:16:32.529Z,37.73
2023-02-02T21:19:01.732Z,34.67
2023-02-02T21:21:28.403Z,35.87
2023-02-02T21:23:56.245Z,36.37
2023-02-02T21:26:26.981Z,34.70
2023-02-02T21:28:53.605Z,34.57
2023-02-02T21:31:20.443Z,36.47
2023-02-02T21:33:48.550Z,37.60
2023-02-02T21:36:29.121Z,33.10
2023-02-02T21:39:11.554Z,35.23
2023-02-02T21:41:38.041Z,36.30
2023-02-02T21:44:12.626Z,36.57
2023-02-02T21:46:39.295Z,35.00
2023-02-02T21:49:13.610Z,34.10
2023-02-02T21:51:40.167Z,35.10
2023-02-02T21:54:24.596Z,35.17
2023-02-02T21:56:52.493Z,33.73
2023-02-02T21:59:21.700Z,35.30
2023-02-02T22:01:49.651Z,34.50
2023-02-02T22:04:20.864Z,33.73
2023-02-02T22:07:12.066Z,32.47
2023-02-02T22:09:40.119Z,30.20
2023-02-02T22:12:23.450Z,32.27
2023-02-02T22:14:52.225Z,32.63
2023-02-02T22:17:38.863Z,30.67
2023-02-02T22:20:30.148Z,31.50
2023-02-02T22:22:56.668Z,30.77
2023-02-02T22:25:33.343Z,29.60
2023-02-02T22:28:10.655Z,27.97
2023-02-02T22:30:39.987Z,28.13
2023-02-02T22:33:09.177Z,27.80
2023-02-02T22:35:35.764Z,30.10
2023-02-02T22:38:02.822Z,27.87
2023-02-02T22:40:29.721Z,30.40
2023-02-02T22:43:00.779Z,27.20
2023-02-02T22:45:27.324Z,28.67
2023-02-02T22:47:54.422Z,26.40
2023-02-02T22:50:23.376Z,27.63
2023-02-02T22:52:50.437Z,28.40
2023-02-02T22:55:17.439Z,27.43
2023-02-02T22:57:44.256Z,27.00
2023-02-02T23:00:17.016Z,26.40
2023-02-02T23:02:43.839Z,28.40
2023-02-02T23:05:12.693Z,30.63
2023-02-02T23:07:39.746Z,29.50
2023-02-02T23:10:07.503Z,27.70
2023-02-02T23:12:34.213Z,27.40
2023-02-02T23:15:01.042Z,28.33
2023-02-02T23:17:27.622Z,27.77
2023-02-02T23:19:54.394Z,29.30
2023-02-02T23:22:20.968Z,27.33
2023-02-02T23:24:47.568Z,29.93
2023-02-02T23:27:14.331Z,27.27
2023-02-02T23:29:40.849Z,26.70
2023-02-02T23:32:07.382Z,26.27
2023-02-02T23:34:33.942Z,27.97
2023-02-02T23:37:00.511Z,27.47
2023-02-02T23:39:27.101Z,25.80
2023-02-02T23:41:53.610Z,27.13
2023-02-02T23:44:20.275Z,24.20
2023-02-02T23:46:47.119Z,24.47
2023-02-02T23:49:13.746Z,24.33
2023-02-02T23:51:40.352Z,23.87
2023-02-02T23:54:06.954Z,27.20
2023-02-02T23:56:33.570Z,26.80
2023-02-02T23:59:00.037Z,25.43
